KNFE

Details ICAO KNFE
Name Fentress Nalf
Region United States
Timezone America/New_York (UTC-5.0)
Plans Departing 2
Arriving 2
Stats Elevation 16 ft / 5 m (AMSL)
Location 36.692064° -76.134549°
Runways 1
Magnetic Variation 10.906° W
Sunrise 2017-12-16 12:11:53 UTC / 2017-12-16 07:11:53 Local
Sunset 2017-12-16 21:51:26 UTC / 2017-12-16 16:51:26 Local
Advertisement - Login to hide

Runways

ID Width Length Bearing (true) Bearing (mag) Surface Threshold Offset Overrun Length
05 174 ft / 53 m 8,067 ft / 2,459 m 39.48° 50.39° Asphalt 1,020 ft / 311 m 0 ft / 0 m
23 174 ft / 53 m 8,067 ft / 2,459 m 219.49° 230.40° Asphalt 1,056 ft / 322 m 0 ft / 0 m

Map

Weather


0- 5 10 15 20 25 30 35+ Temperature / ° C

Clouds and Precipitation
Forecast for 2017-12-16 18:00 UTC. Updated 2 hours ago

Ground ~20,000 ft ~40,000 ft Winds

METAR

KNFE 161456Z AUTO 23004KT 10SM CLR 04/M04 A3025 RMK AO2 SLP247 T00391039 50013

TAF

Not found

Frequencies

Recorded 127.15 MHz ATIS
Ground 121.90 MHz GND
Approach 118.90 MHz APP
Departure 125.20 MHz DEP
Clearance 118.50 MHz CLNC DEL
Tower 120.80 MHz TWR
Approach 119.60 MHz OCEANA NAS APP
Warning: Do not use this data for real-world aviation or navigation. No guarantee of current accuracy is given.